Flight Track Log - Related Links

Times and Time Zones

All times are in EDT time to prevent confusion due to time zone crossing. See the AAL2054 flight status page for this flight to view local times or setup timezone preferences in your user account.

Time Position Orientation Groundspeed Altitude Reporting Facility
EDT Latitude Longitude Course Direction KTS MPH feet Rate Location/Type
Fri 02:06:39 PM 41.9700 -87.8800 180° South 28 32  Level FlightAware ADS-B
Fri 02:07:04 PM 41.9680 -87.8800 180° South 28 32 897 Level FlightAware ADS-B
Fri 02:07:16 PM 41.9690 -87.8810 323° Northwest 36 41 1,258 Level FlightAware ADS-B
Fri 02:07:28 PM 41.9660 -87.8850 225° Southwest 96 110 1,560 Level FlightAware ADS-B
Fri 02:08:06 PM 41.9430 -87.9040 212° Southwest 169 194 1,300 1,970 Climbing FlightAware ADS-B
Fri 02:08:35 PM 41.9250 -87.8830 139° Southeast 211 243 2,200 1,500 Climbing FlightAware ADS-B
Fri 02:08:50 PM 41.9220 -87.8670 104° East 237 273 2,400 2,291 Climbing FlightAware ADS-B
Fri 02:09:30 PM 41.9340 -87.8010 76° East 274 315 4,300 2,300 Climbing FlightAware ADS-B
Fri 02:09:50 PM 41.9400 -87.7670 77° East 278 320 4,700 900 Climbing FlightAware ADS-B
Fri 02:10:10 PM 41.9470 -87.7340 74° East 283 326 4,900 1,674 Climbing FlightAware ADS-B
Fri 02:10:33 PM 41.9640 -87.6970 58° Northeast 288 331 5,900 3,231 Climbing FlightAware ADS-B
Fri 02:11:02 PM 41.9850 -87.6550 56° Northeast 291 335 7,700 3,536 Climbing FlightAware ADS-B
Fri 02:11:29 PM 42.0040 -87.6160 57° Northeast 299 344 9,200 3,581 Climbing FlightAware ADS-B
Fri 02:12:04 PM 42.0330 -87.5590 56° Northeast 308 354 11,400 3,418 Climbing FlightAware ADS-B
Fri 02:12:48 PM 42.0680 -87.4900 56° Northeast 320 368 13,700 2,455 Climbing FlightAware ADS-B
Fri 02:13:32 PM 42.1070 -87.4110 56° Northeast 367 422 15,000 1,906 Climbing FlightAware ADS-B
Fri 02:14:13 PM 42.1490 -87.3260 56° Northeast 401 461 16,400 2,268 Climbing FlightAware ADS-B
Fri 02:14:54 PM 42.1920 -87.2360 57° Northeast 419 482 18,100 2,541 Climbing FlightAware ADS-B
Fri 02:15:38 PM 42.2390 -87.1400 57° Northeast 431 496 20,000 2,512 Climbing FlightAware ADS-B
Fri 02:16:20 PM 42.2780 -87.0370 63° Northeast 439 505 21,700 2,400 Climbing FlightAware ADS-B
Fri 02:16:38 PM 42.2830 -86.9880 82° East 437 503 22,400 2,200 Climbing FlightAware ADS-B
Fri 02:17:20 PM 42.2880 -86.8740 87° East 447 514 23,900 2,023 Climbing FlightAware ADS-B
Fri 02:18:04 PM 42.2920 -86.7530 87° East 458 527 25,300 1,814 Climbing FlightAware ADS-B
Fri 02:18:46 PM 42.2970 -86.6270 87° East 471 542 26,500 1,590 Climbing FlightAware ADS-B
Fri 02:19:27 PM 42.3010 -86.5070 87° East 481 554 27,500 1,425 Climbing FlightAware ADS-B
Fri 02:20:06 PM 42.3060 -86.3900 87° East 491 565 28,400 1,373 Climbing FlightAware ADS-B
Fri 02:20:50 PM 42.3110 -86.2510 87° East 502 578 29,400 1,586 Climbing FlightAware ADS-B
Fri 02:21:33 PM 42.3150 -86.1170 88° East 503 579 30,700 1,879 Climbing FlightAware ADS-B
Fri 02:22:29 PM 42.3200 -85.9430 88° East 501 577 32,500 1,813 Climbing FlightAware ADS-B
Fri 02:23:09 PM 42.3320 -85.8170 83° East 501 577 33,600 1,518 Climbing FlightAware ADS-B
Fri 02:23:52 PM 42.3440 -85.6840 83° East 503 579 34,600 1,412 Climbing FlightAware ADS-B
Fri 02:24:34 PM 42.3550 -85.5530 83° East 501 577 35,600 1,568 Climbing FlightAware ADS-B
Fri 02:25:20 PM 42.3670 -85.4120 83° East 490 564 36,900 988 Climbing FlightAware ADS-B
Fri 02:25:59 PM 42.3760 -85.2960 84° East 485 558 37,000 76 Climbing FlightAware ADS-B
Fri 02:26:39 PM 42.3860 -85.1720 84° East 485 558 37,000  Level FlightAware ADS-B
Fri 02:27:25 PM 42.3970 -85.0380 84° East 486 559 37,000  Level FlightAware ADS-B
Fri 02:28:07 PM 42.4070 -84.9120 84° East 486 559 37,000  Level FlightAware ADS-B
Fri 02:28:47 PM 42.4170 -84.7870 84° East 486 559 37,000  Level FlightAware ADS-B
Fri 02:29:29 PM 42.4270 -84.6600 84° East 487 560 37,000  Level FlightAware ADS-B
Fri 02:30:07 PM 42.4360 -84.5450 84° East 488 562 37,000  Level FlightAware ADS-B
Fri 02:30:53 PM 42.4460 -84.4060 84° East 488 562 37,000  Level FlightAware ADS-B
Fri 02:31:23 PM 42.4530 -84.3140 84° East 489 563 37,000  Level FlightAware ADS-B
Fri 02:32:04 PM 42.4630 -84.1930 84° East 490 564 37,000  Level FlightAware ADS-B
Fri 02:32:39 PM 42.4700 -84.0890 85° East 491 565 37,000  Level FlightAware ADS-B
Fri 02:33:27 PM 42.4810 -83.9350 84° East 493 567 37,000  Level FlightAware ADS-B
Fri 02:34:02 PM 42.4880 -83.8300 85° East 494 568 37,000  Level FlightAware ADS-B
Fri 02:35:04 PM 42.5000 -83.6640 84° East 495 570 37,000  Level FlightAware ADS-B
Fri 02:35:50 PM 42.5090 -83.5240 85° East 495 570 37,000  Level FlightAware ADS-B
Fri 02:36:34 PM 42.5190 -83.3790 85° East 492 566 37,000  Level FlightAware ADS-B
Fri 02:37:18 PM 42.5280 -83.2410 85° East 492 566 37,000  Level FlightAware ADS-B
Fri 02:37:57 PM 42.5350 -83.1270 85° East 491 565 37,000  Level FlightAware ADS-B
Fri 02:38:39 PM 42.5440 -82.9880 85° East 493 567 37,000  Level FlightAware ADS-B
Fri 02:39:25 PM 42.5530 -82.8510 85° East 494 568 37,000  Level FlightAware ADS-B
Fri 02:40:01 PM 42.5600 -82.7360 85° East 495 570 37,000  Level FlightAware ADS-B
Fri 02:40:50 PM 42.5690 -82.5840 85° East 496 571 37,000  Level FlightAware ADS-B
Fri 02:41:26 PM 42.5750 -82.4800 85° East 497 572 37,000  Level FlightAware ADS-B
Fri 02:42:10 PM 42.5830 -82.3390 86° East 496 571 37,000  Level FlightAware ADS-B
Fri 02:43:05 PM 42.5920 -82.1860 85° East 498 573 37,000  Level FlightAware ADS-B
Fri 02:43:49 PM 42.6000 -82.0440 86° East 499 574 37,000  Level FlightAware ADS-B
Fri 02:44:27 PM 42.6060 -81.9290 86° East 500 575 37,000  Level FlightAware ADS-B
Fri 02:46:43 PM 42.6280 -81.4990 86° East 499 574 37,000  Level FlightAware ADS-B
Fri 02:47:27 PM 42.6340 -81.3620 87° East 497 572 37,000  Level FlightAware ADS-B
Fri 02:48:06 PM 42.6400 -81.2430 86° East 493 567 37,000  Level FlightAware ADS-B
Fri 02:48:49 PM 42.6460 -81.1180 86° East 489 563 37,000  Level FlightAware ADS-B
Fri 02:49:28 PM 42.6510 -80.9940 87° East 488 562 37,000  Level FlightAware ADS-B
Fri 02:50:06 PM 42.6560 -80.8920 86° East 488 562 37,000  Level FlightAware ADS-B
Fri 02:50:52 PM 42.6640 -80.7110 86° East 490 564 37,000  Level FlightAware ADS-B
Fri 02:51:31 PM 42.6680 -80.5940 87° East 490 564 37,000  Level FlightAware ADS-B
Fri 02:52:13 PM 42.6740 -80.4650 86° East 490 564 37,000  Level FlightAware ADS-B
Fri 02:52:55 PM 42.6790 -80.3350 87° East 491 565 37,000  Level FlightAware ADS-B
Fri 02:53:38 PM 42.6840 -80.2030 87° East 491 565 37,000  Level FlightAware ADS-B
Fri 02:54:20 PM 42.6890 -80.0750 87° East 492 566 37,000  Level FlightAware ADS-B
Fri 02:54:54 PM 42.6920 -79.9700 88° East 492 566 37,000  Level FlightAware ADS-B
Fri 02:55:34 PM 42.6970 -79.8510 87° East 492 566 37,000  Level FlightAware ADS-B
Fri 02:56:16 PM 42.7010 -79.7240 88° East 493 567 37,000  Level FlightAware ADS-B
Fri 02:56:56 PM 42.7050 -79.5980 87° East 493 567 37,000  Level FlightAware ADS-B
Fri 02:57:36 PM 42.7090 -79.4680 88° East 493 567 37,000  Level FlightAware ADS-B
Fri 02:58:14 PM 42.7130 -79.3530 87° East 492 566 37,000  Level FlightAware ADS-B
Fri 02:59:00 PM 42.7170 -79.2090 88° East 490 564 37,000  Level FlightAware ADS-B
Fri 02:59:44 PM 42.7210 -79.0740 88° East 486 559 37,000  Level FlightAware ADS-B
Fri 02:59:54 PM 42.7220 -79.0430 87° East 486 559 37,000  Level FlightAware ADS-B
Fri 03:01:06 PM 42.7280 -78.8270 88° East 485 558 37,000  Level FlightAware ADS-B
Fri 03:01:58 PM 42.7320 -78.6660 88° East 484 557 37,000  Level FlightAware ADS-B
Fri 03:02:38 PM 42.7340 -78.5480 89° East 484 557 37,000  Level FlightAware ADS-B
Fri 03:03:22 PM 42.7370 -78.4140 88° East 483 556 37,000  Level FlightAware ADS-B
Fri 03:04:02 PM 42.7400 -78.2930 88° East 483 556 37,000  Level FlightAware ADS-B
Fri 03:04:46 PM 42.7430 -78.1590 88° East 485 558 37,000  Level FlightAware ADS-B
Fri 03:05:27 PM 42.7450 -78.0400 89° East 486 559 37,000  Level FlightAware ADS-B
Fri 03:06:08 PM 42.7470 -77.9120 89° East 488 562 37,000  Level FlightAware ADS-B
Fri 03:06:46 PM 42.7500 -77.7920 88° East 489 563 37,000  Level FlightAware ADS-B
Fri 03:07:30 PM 42.7520 -77.6580 89° East 491 565 37,000  Level FlightAware ADS-B
Fri 03:08:08 PM 42.7540 -77.5400 89° East 492 566 37,000  Level FlightAware ADS-B
Fri 03:08:46 PM 42.7550 -77.4220 89° East 491 565 37,000  Level FlightAware ADS-B
Fri 03:09:28 PM 42.7570 -77.2930 89° East 488 562 37,000  Level FlightAware ADS-B
Fri 03:10:10 PM 42.7590 -77.1670 89° East 488 562 37,000  Level FlightAware ADS-B
Fri 03:10:54 PM 42.7600 -77.0300 89° East 488 562 37,000  Level FlightAware ADS-B
Fri 03:11:35 PM 42.7610 -76.9230 89° East 486 559 37,000  Level FlightAware ADS-B
Fri 03:12:20 PM 42.7620 -76.7790 89° East 482 555 37,000  Level FlightAware ADS-B
Fri 03:12:55 PM 42.7630 -76.6720 89° East 481 554 37,000  Level FlightAware ADS-B
Fri 03:13:35 PM 42.7640 -76.5520 89° East 480 552 37,000  Level FlightAware ADS-B
Fri 03:14:20 PM 42.7640 -76.4210 90° East 478 550 37,000  Level FlightAware ADS-B
Fri 03:14:50 PM 42.7650 -76.3280 89° East 476 548 37,000  Level FlightAware ADS-B
Fri 03:16:38 PM 42.7660 -75.9970 90° East 470 541 37,000  Level FlightAware ADS-B
Fri 03:17:18 PM 42.7660 -75.8810 90° East 469 540 37,000  Level FlightAware ADS-B
Fri 03:18:02 PM 42.7660 -75.7510 90° East 468 539 37,000  Level FlightAware ADS-B
Fri 03:18:46 PM 42.7650 -75.6220 91° East 469 540 37,000  Level FlightAware ADS-B
Fri 03:19:24 PM 42.7650 -75.5090 90° East 469 540 37,000  Level FlightAware ADS-B
Fri 03:20:08 PM 42.7650 -75.3830 90° East 472 543 37,000  Level FlightAware ADS-B
Fri 03:20:48 PM 42.7640 -75.2620 91° East 474 545 37,000  Level FlightAware ADS-B
Fri 03:21:30 PM 42.7640 -75.1370 90° East 475 547 37,000  Level FlightAware ADS-B
Fri 03:22:12 PM 42.7570 -75.0120 94° East 473 544 37,000  Level FlightAware ADS-B
Fri 03:22:50 PM 42.7500 -74.8990 95° East 473 544 37,000  Level FlightAware ADS-B
Fri 03:23:38 PM 42.7420 -74.7580 94° East 472 543 37,000  Level FlightAware ADS-B
Fri 03:24:20 PM 42.7340 -74.6330 95° East 472 543 37,000  Level FlightAware ADS-B
Fri 03:25:02 PM 42.7260 -74.5080 95° East 472 543 37,000  Level FlightAware ADS-B
Fri 03:25:44 PM 42.7180 -74.3850 95° East 472 543 37,000  Level FlightAware ADS-B
Fri 03:26:28 PM 42.7100 -74.2560 95° East 472 543 37,000  Level FlightAware ADS-B
Fri 03:27:10 PM 42.7020 -74.1320 95° East 473 544 37,000  Level FlightAware ADS-B
Fri 03:27:50 PM 42.6940 -74.0130 95° East 474 545 37,000  Level FlightAware ADS-B
Fri 03:28:32 PM 42.6860 -73.8910 95° East 476 548 37,000  Level FlightAware ADS-B
Fri 03:29:12 PM 42.6780 -73.7810 96° East 477 549 37,000 -456 Level FlightAware ADS-B
Fri 03:29:51 PM 42.6700 -73.6580 95° East 475 547 36,400 -483 Descending FlightAware ADS-B
Fri 03:30:39 PM 42.6620 -73.5320 95° East 475 547 36,300 -989 Descending FlightAware ADS-B
Fri 03:31:22 PM 42.6500 -73.3790 96° East 487 560 34,900 -1,448 Descending FlightAware ADS-B
Fri 03:32:06 PM 42.6400 -73.2450 96° East 489 563 34,200 -1,642 Descending FlightAware ADS-B
Fri 03:33:08 PM 42.6260 -73.0560 96° East 491 565 32,000 -2,423 Descending FlightAware ADS-B
Fri 03:33:50 PM 42.6160 -72.9280 96° East 492 566 30,000 -1,880 Descending FlightAware ADS-B
Fri 03:34:31 PM 42.6080 -72.8150 95° East 490 564 29,400 -2,561 Descending FlightAware ADS-B
Fri 03:35:12 PM 42.5960 -72.6800 97° East 477 549 26,500 -3,325 Descending FlightAware ADS-B
Fri 03:35:54 PM 42.5870 -72.5590 96° East 470 541 24,800 -2,512 Descending FlightAware ADS-B
Fri 03:36:38 PM 42.5760 -72.4300 97° East 461 531 22,900 -2,571 Descending FlightAware ADS-B
Fri 03:37:18 PM 42.5670 -72.3170 96° East 452 520 21,200 -2,526 Descending FlightAware ADS-B
Fri 03:37:54 PM 42.5590 -72.2150 96° East 444 511 19,700 -2,400 Descending FlightAware ADS-B
Fri 03:38:38 PM 42.5490 -72.0970 97° East 434 499 18,000 -2,442 Descending FlightAware ADS-B
Fri 03:39:20 PM 42.5390 -71.9850 97° East 425 489 16,200 -2,514 Descending FlightAware ADS-B
Fri 03:39:52 PM 42.5310 -71.9000 97° East 419 482 14,900 -2,438 Descending FlightAware ADS-B
Fri 03:40:24 PM 42.5230 -71.8170 97° East 412 474 13,600 -2,386 Descending FlightAware ADS-B
Fri 03:41:20 PM 42.5220 -71.6760 91° East 385 443 11,400 -2,217 Descending FlightAware ADS-B
Fri 03:41:56 PM 42.5280 -71.5940 84° East 365 420 10,200 -1,455 Descending FlightAware ADS-B
Fri 03:42:26 PM 42.5330 -71.5290 84° East 330 380 9,800 -1,286 Descending FlightAware ADS-B
Fri 03:42:52 PM 42.5370 -71.4770 84° East 323 372 9,000 -1,552 Descending FlightAware ADS-B
Fri 03:43:24 PM 42.5410 -71.4140 85° East 314 361 8,300 -1,300 Descending FlightAware ADS-B
Fri 03:43:52 PM 42.5450 -71.3600 84° East 311 358 7,700 -1,393 Descending FlightAware ADS-B
Fri 03:44:20 PM 42.5480 -71.3060 86° East 307 353 7,000 -1,412 Descending FlightAware ADS-B
Fri 03:44:26 PM 42.5490 -71.2940 84° East 306 352 6,900 -1,313 Descending FlightAware ADS-B
Fri 03:44:52 PM 42.5520 -71.2450 85° East 303 349 6,300 -1,043 Descending FlightAware ADS-B
Fri 03:46:44 PM 42.5650 -71.0570 85° East 246 283 4,500 -984 Descending FlightAware ADS-B
Fri 03:46:54 PM 42.5660 -71.0430 84° East 244 281 4,300 -1,309 Descending FlightAware ADS-B
Fri 03:47:39 PM 42.5610 -70.9780 96° East 227 261 3,300 -1,200 Descending FlightAware ADS-B
Fri 03:48:09 PM 42.5370 -70.9540 144° Southeast 207 238 2,800 -764 Descending FlightAware ADS-B
Fri 03:48:34 PM 42.5140 -70.9480 169° South 195 224 2,600 -600 Descending FlightAware ADS-B
Fri 03:48:49 PM 42.5010 -70.9460 174° South 192 221 2,400 -900 Descending FlightAware ADS-B
Fri 03:49:14 PM 42.4780 -70.9500 187° South 181 208 2,000 -982 Descending FlightAware ADS-B
Fri 03:49:44 PM 42.4570 -70.9590 198° South 156 180 1,500 -900 Descending FlightAware ADS-B
Fri 03:49:54 PM 42.4500 -70.9630 203° Southwest 139 160 1,400 -750 Descending FlightAware ADS-B
Fri 03:50:24 PM 42.4320 -70.9730 202° Southwest 127 146 1,000 -700 Descending FlightAware ADS-B
Fri 03:50:54 PM 42.4150 -70.9810 199° South 133 153 700 -655 Descending FlightAware ADS-B
Fri 03:51:19 PM 42.4010 -70.9880 200° South 121 139 400 -643 Descending FlightAware ADS-B
Fri 03:51:50 PM 42.3820 -70.9970 199° South 137 158 100 -305 Descending FlightAware ADS-B
Fri 03:52:18 PM 42.3680 -71.0040 200° South 137 158 100  Level FlightAware ADS-B

Login

Don't have an account? Register now (free) for customized features, flight alerts, and more!